Time;durP1;ratioP1;P1;durP2;ratioP2;P2;SDS_P1;SDS_P2;PMS_P1;PMS_P2;Temp;Humidity;BMP_temperature;BMP_pressure;BME280_temperature;BME280_humidity;BME280_pressure;Samples;Min_cycle;Max_cycle;Signal;HPM_P1;HPM_P2
2021/11/08 00:01:25;;;;;;;14.63;4.50;;;;;;;;;;5031421;28;20056;-82
2021/11/08 00:03:52;;;;;;;20.60;4.30;;;;;;;;;;5031352;28;20625;-82
2021/11/08 00:06:19;;;;;;;14.73;3.70;;;;;;;;;;5064555;28;20033;-83
2021/11/08 00:08:44;;;;;;;15.20;4.20;;;;;;;;;;5031371;28;20028;-82
2021/11/08 00:11:09;;;;;;;11.37;3.30;;;;;;;;;;5031042;28;20025;-82
2021/11/08 00:13:36;;;;;;;12.43;3.60;;;;;;;;;;5031411;28;20086;-82
2021/11/08 00:16:18;;;;;;;25.73;4.20;;;;;;;;;;5031076;28;20022;-82
2021/11/08 00:21:31;;;;;;;19.60;3.83;;;;;;;;;;5032940;28;20030;-82
2021/11/08 00:23:57;;;;;;;17.67;4.23;;;;;;;;;;5030844;28;20029;-82
2021/11/08 00:26:22;;;;;;;18.63;4.40;;;;;;;;;;5032029;28;20033;-82
2021/11/08 00:28:47;;;;;;;12.40;3.77;;;;;;;;;;5030858;28;20100;-82
2021/11/08 00:31:13;;;;;;;20.70;3.97;;;;;;;;;;5030891;28;20036;-82
2021/11/08 00:33:39;;;;;;;15.30;3.47;;;;;;;;;;5031106;28;20017;-82
2021/11/08 00:36:04;;;;;;;20.20;3.90;;;;;;;;;;5031231;28;20440;-82
2021/11/08 00:38:31;;;;;;;13.53;3.30;;;;;;;;;;5030695;28;20114;-82
2021/11/08 00:40:57;;;;;;;20.73;3.97;;;;;;;;;;5064231;28;20018;-82
2021/11/08 00:43:22;;;;;;;18.33;3.53;;;;;;;;;;5063901;28;20028;-82
2021/11/08 00:45:48;;;;;;;10.50;2.83;;;;;;;;;;5064328;28;20108;-82
2021/11/08 00:48:19;;;;;;;13.03;3.07;;;;;;;;;;5032262;28;20025;-82
2021/11/08 00:50:45;;;;;;;14.27;3.33;;;;;;;;;;5030970;28;20116;-82
2021/11/08 00:53:10;;;;;;;11.13;4.10;;;;;;;;;;5034993;28;20119;-82
2021/11/08 00:55:38;;;;;;;16.60;3.70;;;;;;;;;;5034617;28;20029;-82
2021/11/08 00:58:03;;;;;;;18.30;4.00;;;;;;;;;;5034688;28;20036;-82
2021/11/08 01:00:31;;;;;;;12.20;3.43;;;;;;;;;;5034434;28;20025;-82
2021/11/08 01:02:59;;;;;;;22.70;5.10;;;;;;;;;;5068073;28;20519;-82
2021/11/08 01:05:24;;;;;;;11.70;3.57;;;;;;;;;;5067183;28;20389;-82
2021/11/08 01:07:49;;;;;;;12.33;3.47;;;;;;;;;;5035850;28;20022;-82
2021/11/08 01:10:16;;;;;;;11.33;3.70;;;;;;;;;;5034345;28;20025;-82
2021/11/08 01:12:42;;;;;;;14.17;3.60;;;;;;;;;;5032886;28;20021;-82
2021/11/08 01:15:08;;;;;;;20.23;4.00;;;;;;;;;;5035822;28;20120;-82
2021/11/08 01:17:34;;;;;;;19.27;3.80;;;;;;;;;;5034381;28;20029;-82
2021/11/08 01:20:00;;;;;;;20.27;3.63;;;;;;;;;;5034513;28;20041;-82
2021/11/08 01:22:25;;;;;;;16.50;3.67;;;;;;;;;;5034038;28;20038;-82
2021/11/08 01:24:52;;;;;;;10.57;3.20;;;;;;;;;;5067561;28;20388;-82
2021/11/08 01:27:19;;;;;;;14.63;4.43;;;;;;;;;;5067550;28;20028;-82
2021/11/08 01:29:45;;;;;;;22.90;3.47;;;;;;;;;;5067194;28;20029;-82
2021/11/08 01:32:11;;;;;;;19.53;3.90;;;;;;;;;;5067618;28;20098;-82
2021/11/08 01:34:36;;;;;;;13.70;3.50;;;;;;;;;;5067336;28;20028;-82
2021/11/08 01:37:04;;;;;;;15.27;3.63;;;;;;;;;;5034116;28;20029;-82
2021/11/08 01:39:34;;;;;;;10.73;3.57;;;;;;;;;;5066962;28;20036;-82
2021/11/08 01:42:01;;;;;;;9.50;3.40;;;;;;;;;;5033704;28;20021;-82
2021/11/08 01:44:28;;;;;;;14.70;3.73;;;;;;;;;;5067107;28;20013;-82
2021/11/08 01:46:54;;;;;;;12.67;3.47;;;;;;;;;;5066583;28;20024;-82
2021/11/08 01:49:19;;;;;;;20.87;3.63;;;;;;;;;;5035254;28;20457;-82
2021/11/08 01:51:44;;;;;;;12.50;3.80;;;;;;;;;;5033708;28;20032;-82
2021/11/08 01:54:10;;;;;;;11.97;3.67;;;;;;;;;;5033587;28;20017;-82
2021/11/08 01:56:35;;;;;;;16.87;4.20;;;;;;;;;;5033551;28;20832;-82
2021/11/08 01:59:01;;;;;;;19.27;4.03;;;;;;;;;;5033420;28;20021;-82
2021/11/08 02:01:26;;;;;;;17.57;4.10;;;;;;;;;;5067005;28;20075;-82
2021/11/08 02:03:51;;;;;;;13.20;3.67;;;;;;;;;;5065770;28;20041;-82
2021/11/08 02:06:17;;;;;;;20.13;3.40;;;;;;;;;;5066960;28;20036;-82
2021/11/08 02:08:43;;;;;;;15.67;3.20;;;;;;;;;;5033125;28;20032;-82
2021/11/08 02:11:08;;;;;;;14.37;3.57;;;;;;;;;;5034549;28;20032;-82
2021/11/08 02:13:34;;;;;;;21.60;4.03;;;;;;;;;;5033579;28;20030;-82
2021/11/08 02:15:59;;;;;;;19.93;3.93;;;;;;;;;;5034464;28;20068;-83
2021/11/08 02:18:24;;;;;;;14.27;3.83;;;;;;;;;;5034643;28;20029;-82
2021/11/08 02:20:51;;;;;;;15.10;3.43;;;;;;;;;;5033031;28;20025;-82
2021/11/08 02:23:18;;;;;;;11.53;3.37;;;;;;;;;;5066452;28;20029;-82
2021/11/08 02:25:43;;;;;;;14.40;4.10;;;;;;;;;;5066603;28;20022;-82
2021/11/08 02:28:10;;;;;;;15.20;4.07;;;;;;;;;;5032823;28;20040;-82
2021/11/08 02:30:37;;;;;;;22.33;4.10;;;;;;;;;;5066495;28;20075;-82
2021/11/08 02:33:03;;;;;;;20.73;4.30;;;;;;;;;;5033952;28;20040;-83
2021/11/08 02:35:29;;;;;;;25.43;3.80;;;;;;;;;;5034170;28;20025;-82
2021/11/08 02:37:55;;;;;;;10.40;2.80;;;;;;;;;;5065762;28;20513;-82
2021/11/08 02:40:25;;;;;;;11.67;3.33;;;;;;;;;;5032651;28;20021;-82
2021/11/08 02:42:53;;;;;;;13.97;3.60;;;;;;;;;;5066041;28;20547;-82
2021/11/08 02:45:20;;;;;;;17.93;4.03;;;;;;;;;;5032566;28;20022;-82
2021/11/08 02:47:46;;;;;;;17.03;3.73;;;;;;;;;;5065976;28;20473;-82
2021/11/08 02:50:12;;;;;;;17.83;4.30;;;;;;;;;;5030628;28;20081;-82
2021/11/08 02:52:38;;;;;;;26.50;3.80;;;;;;;;;;5060257;28;20052;-82
2021/11/08 02:55:04;;;;;;;13.50;3.80;;;;;;;;;;5032172;28;20029;-82
2021/11/08 02:57:29;;;;;;;18.40;3.87;;;;;;;;;;5065932;28;20040;-82
2021/11/08 02:59:58;;;;;;;18.23;3.53;;;;;;;;;;5032193;28;20074;-82
2021/11/08 03:02:23;;;;;;;17.03;3.97;;;;;;;;;;5032320;28;20041;-82
2021/11/08 03:04:51;;;;;;;15.83;3.57;;;;;;;;;;5032503;28;20022;-82
2021/11/08 03:07:17;;;;;;;11.50;3.20;;;;;;;;;;5065807;28;20025;-82
2021/11/08 03:09:45;;;;;;;13.57;3.93;;;;;;;;;;5033498;28;20096;-82
2021/11/08 03:12:14;;;;;;;12.97;3.30;;;;;;;;;;5033334;28;20021;-82
2021/11/08 03:14:46;;;;;;;8.97;2.90;;;;;;;;;;5031937;28;20113;-82
2021/11/08 03:17:15;;;;;;;11.97;3.43;;;;;;;;;;5064979;28;20029;-82
2021/11/08 03:19:42;;;;;;;17.73;3.80;;;;;;;;;;5033401;28;20047;-82
2021/11/08 03:22:15;;;;;;;12.97;3.97;;;;;;;;;;5065184;28;20416;-82
2021/11/08 03:27:27;;;;;;;11.80;2.90;;;;;;;;;;5033597;28;19913;-82
2021/11/08 03:29:53;;;;;;;15.33;3.20;;;;;;;;;;5031709;28;20083;-82
2021/11/08 03:32:19;;;;;;;13.67;3.83;;;;;;;;;;5065200;28;20029;-82
2021/11/08 03:37:19;;;;;;;17.70;3.67;;;;;;;;;;5032489;28;20037;-82
2021/11/08 03:39:44;;;;;;;16.77;3.70;;;;;;;;;;5032989;28;20025;-82
2021/11/08 03:42:10;;;;;;;16.53;4.20;;;;;;;;;;5031428;28;20033;-82
2021/11/08 03:44:36;;;;;;;14.20;3.60;;;;;;;;;;5031311;28;20112;-82
2021/11/08 03:47:01;;;;;;;12.47;3.70;;;;;;;;;;5031662;28;20016;-82
2021/11/08 03:49:26;;;;;;;12.53;3.30;;;;;;;;;;5065285;28;20033;-82
2021/11/08 03:51:52;;;;;;;13.40;2.93;;;;;;;;;;5031675;28;20013;-82
2021/11/08 03:54:17;;;;;;;19.13;3.80;;;;;;;;;;5031384;28;20021;-82
2021/11/08 03:56:43;;;;;;;15.20;3.17;;;;;;;;;;5031690;28;20033;-82
2021/11/08 03:59:08;;;;;;;17.37;3.50;;;;;;;;;;5030963;28;20018;-82
2021/11/08 04:01:36;;;;;;;11.10;3.50;;;;;;;;;;5031434;28;20469;-82
2021/11/08 04:04:03;;;;;;;14.67;3.40;;;;;;;;;;5031351;28;20021;-82
2021/11/08 04:06:28;;;;;;;11.50;3.67;;;;;;;;;;5064658;28;20087;-82
2021/11/08 04:08:53;;;;;;;13.57;3.77;;;;;;;;;;5031502;28;20014;-82
2021/11/08 04:11:18;;;;;;;16.00;3.83;;;;;;;;;;5030886;28;20013;-82
2021/11/08 04:13:44;;;;;;;18.33;4.30;;;;;;;;;;5031473;28;20091;-82
2021/11/08 04:16:13;;;;;;;18.20;4.17;;;;;;;;;;5064461;28;20075;-82
2021/11/08 04:18:45;;;;;;;17.57;3.60;;;;;;;;;;5056748;28;20021;-82
2021/11/08 04:21:11;;;;;;;18.85;3.38;;;;;;;;;;5031270;28;20029;-82
2021/11/08 04:23:36;;;;;;;22.70;4.70;;;;;;;;;;5064101;28;20075;-82
2021/11/08 04:26:03;;;;;;;11.97;3.20;;;;;;;;;;5030991;28;20064;-82
2021/11/08 04:28:28;;;;;;;13.90;3.63;;;;;;;;;;5029868;28;20102;-82
2021/11/08 04:30:53;;;;;;;19.93;3.87;;;;;;;;;;5031148;28;20057;-82
2021/11/08 04:34:07;;;;;;;17.77;3.83;;;;;;;;;;5030698;28;20020;-82
2021/11/08 04:51:11;;;;;;;20.07;4.57;;;;;;;;;;5032374;28;20030;-82
2021/11/08 04:53:48;;;;;;;27.77;4.30;;;;;;;;;;5031880;28;20416;-82
2021/11/08 05:29:53;;;;;;;30.37;4.70;;;;;;;;;;5032057;28;20384;-82
2021/11/08 05:31:12;;;;;;;17.33;3.43;;;;;;;;;;5035930;28;20025;-82
2021/11/08 05:33:37;;;;;;;15.97;3.40;;;;;;;;;;5063726;28;20022;-82
2021/11/08 05:36:03;;;;;;;15.07;3.00;;;;;;;;;;5031854;28;20017;-82
2021/11/08 05:38:28;;;;;;;20.50;3.50;;;;;;;;;;5031453;28;20555;-82
2021/11/08 05:40:53;;;;;;;17.03;3.87;;;;;;;;;;5033694;28;20025;-82
2021/11/08 05:43:19;;;;;;;15.10;3.37;;;;;;;;;;5033732;28;20025;-82
2021/11/08 05:45:44;;;;;;;17.30;3.23;;;;;;;;;;5033660;28;20461;-82
2021/11/08 05:48:09;;;;;;;16.10;3.63;;;;;;;;;;5033616;28;20392;-82
2021/11/08 05:50:42;;;;;;;17.80;3.70;;;;;;;;;;5035226;28;20018;-82
2021/11/08 05:53:13;;;;;;;18.87;3.43;;;;;;;;;;5027122;28;20033;-82
2021/11/08 05:55:44;;;;;;;11.93;3.23;;;;;;;;;;5033332;28;20022;-82
2021/11/08 06:49:50;;;;;;;28.77;6.83;;;;;;;;;;5034047;28;20523;-82
2021/11/08 06:52:16;;;;;;;20.17;4.97;;;;;;;;;;5033491;28;20031;-82
2021/11/08 06:54:44;;;;;;;16.43;4.90;;;;;;;;;;5032701;28;20017;-82
2021/11/08 06:57:16;;;;;;;26.53;5.23;;;;;;;;;;5032319;28;20025;-82
2021/11/08 06:59:42;;;;;;;17.60;4.55;;;;;;;;;;5033851;28;20770;-82
2021/11/08 07:02:07;;;;;;;13.70;4.67;;;;;;;;;;5033444;28;20461;-83
2021/11/08 07:04:33;;;;;;;20.60;4.80;;;;;;;;;;5031096;28;20024;-82
2021/11/08 07:06:58;;;;;;;23.90;4.67;;;;;;;;;;5031664;28;20028;-82
2021/11/08 07:09:23;;;;;;;16.00;3.73;;;;;;;;;;5031373;28;20048;-82
2021/11/08 07:11:49;;;;;;;29.77;4.47;;;;;;;;;;5031743;28;20024;-82
2021/11/08 07:14:14;;;;;;;18.20;4.47;;;;;;;;;;5030706;28;20105;-82
2021/11/08 07:16:40;;;;;;;25.50;5.43;;;;;;;;;;5065539;28;20392;-82
2021/11/08 07:19:06;;;;;;;18.27;3.73;;;;;;;;;;5032061;28;20484;-82
2021/11/08 07:21:32;;;;;;;24.67;4.37;;;;;;;;;;5031628;28;20102;-82
2021/11/08 07:23:57;;;;;;;17.10;4.47;;;;;;;;;;5031885;28;20021;-81
2021/11/08 07:26:23;;;;;;;20.50;4.67;;;;;;;;;;5031702;28;20017;-81
2021/11/08 07:28:48;;;;;;;16.60;3.53;;;;;;;;;;5033423;28;20033;-81
2021/11/08 07:31:13;;;;;;;23.27;4.17;;;;;;;;;;5031333;28;20116;-82
2021/11/08 07:33:39;;;;;;;15.80;3.80;;;;;;;;;;5031839;28;20079;-81
2021/11/08 07:36:05;;;;;;;25.80;4.53;;;;;;;;;;5032931;28;20045;-81
2021/11/08 07:38:35;;;;;;;29.17;4.60;;;;;;;;;;5031457;28;20025;-81
2021/11/08 07:41:01;;;;;;;21.17;3.90;;;;;;;;;;5031638;28;20393;-81
2021/11/08 07:43:27;;;;;;;25.10;4.03;;;;;;;;;;5031300;28;20068;-81
2021/11/08 07:45:52;;;;;;;19.90;3.87;;;;;;;;;;5031214;28;20430;-81
2021/11/08 07:48:17;;;;;;;20.63;3.87;;;;;;;;;;5032882;28;20078;-81
2021/11/08 07:50:43;;;;;;;17.33;3.73;;;;;;;;;;5030431;28;20105;-81
2021/11/08 07:53:09;;;;;;;20.93;4.43;;;;;;;;;;5031027;28;20041;-81
2021/11/08 07:55:35;;;;;;;26.13;4.50;;;;;;;;;;5031466;28;20430;-81
2021/11/08 07:58:01;;;;;;;26.83;3.90;;;;;;;;;;5031724;28;20025;-81
2021/11/08 08:00:26;;;;;;;13.50;3.53;;;;;;;;;;5030524;28;20036;-82
2021/11/08 08:02:52;;;;;;;21.93;3.83;;;;;;;;;;5030726;28;20037;-81
2021/11/08 08:05:18;;;;;;;20.40;4.27;;;;;;;;;;5031625;28;20044;-81
2021/11/08 08:07:43;;;;;;;19.10;4.07;;;;;;;;;;5031007;28;20397;-81
2021/11/08 08:10:08;;;;;;;21.70;3.93;;;;;;;;;;5031519;28;20024;-81
2021/11/08 08:12:34;;;;;;;23.40;4.30;;;;;;;;;;5031026;28;20057;-81
2021/11/08 08:14:59;;;;;;;18.10;4.00;;;;;;;;;;5064082;28;20021;-82
2021/11/08 08:17:24;;;;;;;22.63;5.27;;;;;;;;;;5031372;28;20112;-82
2021/11/08 08:19:49;;;;;;;18.50;4.33;;;;;;;;;;5030792;28;20021;-81
2021/11/08 08:22:14;;;;;;;19.53;3.90;;;;;;;;;;5031878;28;20100;-82
2021/11/08 08:24:40;;;;;;;19.93;4.23;;;;;;;;;;5030436;28;20017;-82
2021/11/08 08:27:05;;;;;;;20.47;4.37;;;;;;;;;;5031343;28;20018;-82
2021/11/08 08:29:31;;;;;;;19.27;4.13;;;;;;;;;;5031028;28;20026;-82
2021/11/08 08:31:56;;;;;;;26.17;4.30;;;;;;;;;;5030387;28;20385;-82
2021/11/08 08:34:22;;;;;;;32.60;4.70;;;;;;;;;;5031099;28;20026;-82
2021/11/08 08:36:48;;;;;;;23.00;3.80;;;;;;;;;;5064245;28;20033;-82
2021/11/08 08:39:14;;;;;;;25.13;4.70;;;;;;;;;;5031160;28;20025;-81
2021/11/08 08:41:39;;;;;;;21.73;5.03;;;;;;;;;;5032175;28;20029;-81
2021/11/08 08:44:07;;;;;;;24.23;4.80;;;;;;;;;;5047321;28;20196;-82
2021/11/08 08:46:32;;;;;;;22.37;4.47;;;;;;;;;;5031964;28;20014;-81
2021/11/08 08:48:59;;;;;;;19.88;4.22;;;;;;;;;;5063941;28;20460;-81
2021/11/08 08:51:24;;;;;;;27.07;3.80;;;;;;;;;;5031979;28;20028;-81
2021/11/08 08:53:50;;;;;;;22.52;4.13;;;;;;;;;;5030297;28;20112;-82
2021/11/08 08:56:17;;;;;;;29.80;4.37;;;;;;;;;;5031008;28;20040;-81
2021/11/08 08:58:43;;;;;;;24.85;4.82;;;;;;;;;;5030602;28;20021;-81
2021/11/08 09:01:08;;;;;;;26.10;4.70;;;;;;;;;;5030797;28;20117;-81
2021/11/08 09:03:34;;;;;;;19.33;3.70;;;;;;;;;;5063583;28;20488;-81
2021/11/08 09:05:59;;;;;;;28.37;5.00;;;;;;;;;;5063128;28;20029;-81
2021/11/08 09:08:24;;;;;;;21.50;4.23;;;;;;;;;;5030716;28;20366;-81
2021/11/08 09:10:50;;;;;;;29.73;5.10;;;;;;;;;;5029767;28;20013;-81
2021/11/08 09:13:15;;;;;;;24.60;5.30;;;;;;;;;;5066285;28;20382;-81
2021/11/08 09:15:41;;;;;;;26.37;4.23;;;;;;;;;;5033102;28;20464;-82
2021/11/08 09:18:07;;;;;;;29.90;4.87;;;;;;;;;;5034044;28;20026;-81
2021/11/08 09:20:33;;;;;;;29.80;4.57;;;;;;;;;;5035006;28;20025;-81
2021/11/08 09:22:58;;;;;;;31.70;4.80;;;;;;;;;;5033018;28;20025;-81
2021/11/08 09:25:25;;;;;;;23.35;4.50;;;;;;;;;;5034562;28;20021;-81
2021/11/08 09:27:51;;;;;;;28.42;5.15;;;;;;;;;;5034160;28;20156;-82
2021/11/08 09:30:18;;;;;;;21.23;4.00;;;;;;;;;;5034171;28;20025;-82
2021/11/08 09:32:44;;;;;;;26.23;4.72;;;;;;;;;;5034471;28;20025;-81
2021/11/08 09:35:10;;;;;;;30.58;5.00;;;;;;;;;;5033948;28;20108;-81
2021/11/08 09:37:42;;;;;;;30.77;5.05;;;;;;;;;;5035454;28;20477;-81
2021/11/08 09:40:08;;;;;;;;;;;;;;;;;;5035455;28;20021;-81
2021/11/08 09:42:34;;;;;;;23.65;4.75;;;;;;;;;;5034137;28;19920;-81
2021/11/08 09:45:00;;;;;;;26.88;3.92;;;;;;;;;;5034026;28;20101;-81
2021/11/08 09:47:26;;;;;;;30.92;5.20;;;;;;;;;;5033882;28;20446;-81
2021/11/08 09:49:52;;;;;;;28.10;4.43;;;;;;;;;;5066874;28;20377;-81
2021/11/08 09:52:18;;;;;;;25.35;4.57;;;;;;;;;;5035025;28;20432;-81
2021/11/08 09:54:43;;;;;;;22.75;4.28;;;;;;;;;;5034346;28;20018;-82
2021/11/08 09:57:09;;;;;;;35.22;4.82;;;;;;;;;;5033863;28;20366;-82
2021/11/08 09:59:34;;;;;;;23.70;4.55;;;;;;;;;;5034095;28;20021;-82
2021/11/08 10:02:00;;;;;;;24.13;4.80;;;;;;;;;;5033358;28;20009;-82
2021/11/08 10:04:25;;;;;;;27.98;5.03;;;;;;;;;;5033652;28;20025;-82
2021/11/08 10:06:50;;;;;;;18.33;3.78;;;;;;;;;;5033777;28;20025;-82
2021/11/08 10:09:19;;;;;;;25.77;5.10;;;;;;;;;;5032453;28;20048;-82
2021/11/08 10:11:45;;;;;;;22.50;4.75;;;;;;;;;;5035028;28;20136;-82
2021/11/08 10:14:11;;;;;;;30.13;5.35;;;;;;;;;;5033658;28;20048;-81
2021/11/08 10:16:37;;;;;;;35.38;5.57;;;;;;;;;;5066313;28;20026;-81
2021/11/08 10:19:04;;;;;;;28.23;5.18;;;;;;;;;;5033569;28;20084;-82
2021/11/08 10:21:35;;;;;;;28.10;5.75;;;;;;;;;;5034962;28;20032;-81
2021/11/08 10:24:01;;;;;;;30.20;5.07;;;;;;;;;;5033025;28;20028;-82
2021/11/08 10:26:29;;;;;;;28.02;5.03;;;;;;;;;;5033465;28;20025;-82
2021/11/08 10:28:59;;;;;;;30.20;6.13;;;;;;;;;;5033720;28;20108;-82
2021/11/08 10:31:28;;;;;;;23.63;4.97;;;;;;;;;;5033139;28;20025;-82
2021/11/08 10:33:54;;;;;;;25.73;5.43;;;;;;;;;;5066905;28;20025;-82
2021/11/08 10:36:21;;;;;;;25.25;5.45;;;;;;;;;;5032989;28;20116;-82
2021/11/08 10:38:47;;;;;;;29.10;4.88;;;;;;;;;;5033543;28;20023;-82
2021/11/08 10:41:14;;;;;;;28.85;4.95;;;;;;;;;;5033275;28;20120;-82
2021/11/08 10:43:41;;;;;;;32.15;4.90;;;;;;;;;;5033093;28;20110;-82
2021/11/08 10:46:10;;;;;;;28.63;4.70;;;;;;;;;;5033404;28;20029;-82
2021/11/08 10:48:42;;;;;;;23.42;5.00;;;;;;;;;;5032894;28;20063;-82
2021/11/08 10:51:09;;;;;;;35.53;5.47;;;;;;;;;;5033078;28;20083;-82
2021/11/08 10:53:46;;;;;;;31.10;4.97;;;;;;;;;;5032898;28;20392;-82
2021/11/08 10:56:14;;;;;;;29.63;4.32;;;;;;;;;;5049765;28;20029;-82
2021/11/08 10:58:43;;;;;;;27.15;5.07;;;;;;;;;;5029710;28;20025;-81
2021/11/08 11:01:18;;;;;;;27.77;4.47;;;;;;;;;;5065813;28;20057;-82
2021/11/08 11:03:46;;;;;;;23.58;5.13;;;;;;;;;;5032476;28;20025;-82
2021/11/08 11:06:12;;;;;;;25.27;5.10;;;;;;;;;;5032699;28;20104;-82
2021/11/08 11:08:46;;;;;;;33.65;5.10;;;;;;;;;;5065981;28;20164;-82
2021/11/08 11:11:13;;;;;;;28.70;4.28;;;;;;;;;;5032650;28;20014;-82
2021/11/08 11:13:47;;;;;;;23.85;5.15;;;;;;;;;;5064189;28;20515;-82
2021/11/08 11:16:12;;;;;;;29.55;4.40;;;;;;;;;;5032677;28;20099;-82
2021/11/08 11:18:38;;;;;;;27.95;4.05;;;;;;;;;;5065774;28;20022;-82
2021/11/08 11:21:14;;;;;;;27.00;5.90;;;;;;;;;;5032346;28;20108;-79
2021/11/08 11:23:49;;;;;;;32.42;4.35;;;;;;;;;;5065437;28;20033;-80
2021/11/08 11:26:16;;;;;;;22.50;3.67;;;;;;;;;;5032003;28;20030;-79
2021/11/08 11:28:45;;;;;;;25.70;4.38;;;;;;;;;;5064810;28;20116;-79
2021/11/08 11:31:16;;;;;;;27.25;4.53;;;;;;;;;;5031639;28;20374;-80
2021/11/08 11:33:41;;;;;;;23.85;3.75;;;;;;;;;;5065210;28;20021;-80
2021/11/08 11:36:12;;;;;;;32.30;4.68;;;;;;;;;;5031330;28;20052;-80
2021/11/08 11:38:40;;;;;;;24.45;4.40;;;;;;;;;;5031454;28;20423;-80
2021/11/08 11:41:12;;;;;;;31.13;4.35;;;;;;;;;;5031545;28;20033;-80
2021/11/08 11:43:46;;;;;;;28.05;4.00;;;;;;;;;;5031240;28;20017;-80
2021/11/08 11:46:13;;;;;;;18.35;3.42;;;;;;;;;;5031411;28;20029;-80
2021/11/08 11:48:39;;;;;;;22.00;3.30;;;;;;;;;;5032780;28;20056;-80
2021/11/08 11:51:05;;;;;;;26.77;3.50;;;;;;;;;;5031738;28;20513;-80
2021/11/08 11:53:31;;;;;;;21.48;3.45;;;;;;;;;;5031351;28;20104;-80
2021/11/08 11:55:57;;;;;;;16.23;2.35;;;;;;;;;;5031773;28;20105;-80
2021/11/08 11:58:22;;;;;;;20.20;3.70;;;;;;;;;;5031316;28;20079;-80
2021/11/08 12:00:48;;;;;;;17.65;3.28;;;;;;;;;;5032188;28;20024;-80
2021/11/08 12:03:14;;;;;;;23.85;3.80;;;;;;;;;;5031052;28;20481;-80
2021/11/08 12:05:44;;;;;;;18.30;2.85;;;;;;;;;;5030516;28;20021;-80
2021/11/08 12:08:09;;;;;;;29.92;4.10;;;;;;;;;;5064410;28;20044;-80
2021/11/08 12:10:42;;;;;;;22.40;3.10;;;;;;;;;;5031237;28;20523;-80
2021/11/08 12:13:18;;;;;;;17.73;2.55;;;;;;;;;;5030601;28;20032;-80
2021/11/08 12:15:44;;;;;;;17.30;2.58;;;;;;;;;;5031042;28;20377;-80
2021/11/08 12:18:12;;;;;;;21.48;2.70;;;;;;;;;;5030424;28;20033;-80
2021/11/08 12:20:42;;;;;;;19.95;2.75;;;;;;;;;;5030923;28;20050;-80
2021/11/08 12:23:12;;;;;;;13.93;2.38;;;;;;;;;;5030862;28;20060;-80
2021/11/08 12:25:42;;;;;;;24.45;2.95;;;;;;;;;;5064174;28;20076;-80
2021/11/08 12:28:12;;;;;;;20.35;2.72;;;;;;;;;;5029754;28;20369;-79
2021/11/08 12:30:45;;;;;;;12.52;2.75;;;;;;;;;;5064370;28;20014;-80
2021/11/08 12:33:26;;;;;;;16.25;3.38;;;;;;;;;;5030929;28;20377;-80
2021/11/08 12:35:53;;;;;;;19.50;3.13;;;;;;;;;;5031836;28;20071;-80
2021/11/08 12:38:21;;;;;;;18.75;2.90;;;;;;;;;;5028951;28;20018;-80
2021/11/08 12:40:48;;;;;;;19.05;2.47;;;;;;;;;;5030952;28;20028;-80
2021/11/08 12:43:26;;;;;;;22.98;3.33;;;;;;;;;;5030002;28;20487;-80
2021/11/08 12:45:52;;;;;;;14.43;2.45;;;;;;;;;;5030925;28;20013;-80
2021/11/08 12:48:18;;;;;;;15.55;2.58;;;;;;;;;;5033064;28;20014;-80
2021/11/08 12:50:52;;;;;;;22.35;3.00;;;;;;;;;;5068212;28;20381;-80
2021/11/08 12:53:41;;;;;;;12.60;2.17;;;;;;;;;;5068110;28;20025;-80
2021/11/08 12:56:18;;;;;;;13.63;2.22;;;;;;;;;;5064444;28;20025;-80
2021/11/08 12:58:46;;;;;;;18.48;2.42;;;;;;;;;;5068147;28;20036;-80
2021/11/08 13:01:18;;;;;;;18.27;2.80;;;;;;;;;;5068099;28;20083;-80
2021/11/08 13:03:46;;;;;;;20.88;2.65;;;;;;;;;;5036020;28;20064;-80
2021/11/08 13:06:28;;;;;;;21.80;3.08;;;;;;;;;;5034571;28;20029;-80
2021/11/08 13:09:02;;;;;;;18.48;2.75;;;;;;;;;;5035774;28;20412;-80
2021/11/08 13:11:35;;;;;;;15.02;2.38;;;;;;;;;;5044282;28;20500;-80
2021/11/08 13:14:00;;;;;;;12.25;2.50;;;;;;;;;;5035780;28;20424;-80
2021/11/08 13:16:33;;;;;;;19.85;2.70;;;;;;;;;;5034341;28;20025;-80
2021/11/08 13:19:03;;;;;;;21.08;2.83;;;;;;;;;;5034192;28;20032;-80
2021/11/08 13:21:29;;;;;;;10.98;2.42;;;;;;;;;;5034950;28;20369;-80
2021/11/08 13:23:55;;;;;;;18.73;3.15;;;;;;;;;;5034370;28;20027;-80
2021/11/08 13:26:20;;;;;;;18.75;2.22;;;;;;;;;;5033215;28;20020;-80
2021/11/08 13:28:45;;;;;;;23.75;2.65;;;;;;;;;;5034462;28;20052;-80
2021/11/08 13:31:15;;;;;;;9.43;2.20;;;;;;;;;;5034100;28;20029;-80
2021/11/08 13:33:42;;;;;;;19.48;2.30;;;;;;;;;;5067912;28;20026;-80
2021/11/08 13:36:09;;;;;;;9.77;1.90;;;;;;;;;;5034726;28;20033;-80
2021/11/08 13:38:36;;;;;;;19.42;2.03;;;;;;;;;;5035206;28;20635;-80
2021/11/08 13:41:07;;;;;;;13.88;2.33;;;;;;;;;;5034126;28;20055;-80
2021/11/08 13:43:43;;;;;;;10.57;2.37;;;;;;;;;;5033519;28;20022;-80
2021/11/08 13:46:10;;;;;;;16.38;2.30;;;;;;;;;;5033413;28;20297;-81
2021/11/08 13:48:42;;;;;;;17.65;2.67;;;;;;;;;;5032610;28;20060;-80
2021/11/08 13:51:16;;;;;;;21.00;2.13;;;;;;;;;;5067038;28;20538;-80
2021/11/08 13:53:41;;;;;;;19.17;2.80;;;;;;;;;;5031909;28;20029;-80
2021/11/08 13:56:07;;;;;;;14.70;2.45;;;;;;;;;;5066768;28;20021;-81
2021/11/08 13:58:33;;;;;;;15.70;3.40;;;;;;;;;;5061830;28;20111;-80
2021/11/08 14:01:00;;;;;;;21.63;2.90;;;;;;;;;;5066132;28;20017;-80
2021/11/08 14:03:25;;;;;;;13.50;2.47;;;;;;;;;;5066497;28;20121;-80
2021/11/08 14:05:51;;;;;;;12.85;2.40;;;;;;;;;;5033360;28;20156;-80
2021/11/08 14:08:20;;;;;;;20.38;3.20;;;;;;;;;;5034906;28;20105;-80
2021/11/08 14:10:49;;;;;;;15.35;2.10;;;;;;;;;;5032872;28;20022;-81
2021/11/08 14:13:15;;;;;;;20.05;2.97;;;;;;;;;;5066223;28;20051;-80
2021/11/08 14:15:41;;;;;;;15.85;3.00;;;;;;;;;;5033417;28;20439;-81
2021/11/08 14:18:06;;;;;;;14.32;2.63;;;;;;;;;;5033108;28;20071;-81
2021/11/08 14:20:31;;;;;;;13.88;2.55;;;;;;;;;;5033098;28;20037;-81
2021/11/08 14:22:56;;;;;;;11.52;2.15;;;;;;;;;;5034294;28;20076;-81
2021/11/08 14:25:22;;;;;;;16.33;2.80;;;;;;;;;;5065715;28;20091;-81
2021/11/08 14:27:47;;;;;;;16.98;2.75;;;;;;;;;;5033999;28;20473;-81
2021/11/08 14:30:20;;;;;;;19.27;2.35;;;;;;;;;;5032599;28;20028;-80
2021/11/08 14:32:46;;;;;;;32.67;4.25;;;;;;;;;;5060756;28;20095;-81
2021/11/08 14:35:16;;;;;;;13.82;2.72;;;;;;;;;;5065831;28;20033;-81
2021/11/08 14:37:49;;;;;;;18.35;2.63;;;;;;;;;;5066528;28;20037;-82
2021/11/08 14:43:21;;;;;;;17.67;3.97;;;;;;;;;;4921407;28;20044;-84
2021/11/08 14:45:57;;;;;;;12.65;2.78;;;;;;;;;;5026447;28;20021;-83
2021/11/08 14:48:23;;;;;;;15.30;2.47;;;;;;;;;;5032622;28;20036;-83
2021/11/08 14:50:48;;;;;;;16.77;3.20;;;;;;;;;;5033029;28;20025;-84
2021/11/08 14:53:14;;;;;;;14.52;2.88;;;;;;;;;;5032999;28;20063;-84
2021/11/08 14:55:39;;;;;;;19.45;3.53;;;;;;;;;;5032531;28;20025;-84
2021/11/08 14:58:15;;;;;;;17.88;3.45;;;;;;;;;;5033086;28;20032;-84
2021/11/08 15:00:41;;;;;;;15.60;3.53;;;;;;;;;;5033650;28;20369;-84
2021/11/08 15:03:11;;;;;;;14.90;3.03;;;;;;;;;;5065900;28;20026;-84
2021/11/08 15:05:37;;;;;;;21.33;4.05;;;;;;;;;;5033498;28;20033;-84
2021/11/08 15:08:08;;;;;;;23.77;3.33;;;;;;;;;;5026184;28;20370;-84
2021/11/08 15:10:35;;;;;;;15.55;3.28;;;;;;;;;;5032139;28;20100;-85
2021/11/08 15:13:02;;;;;;;12.07;2.53;;;;;;;;;;5032550;28;20013;-87
2021/11/08 15:15:39;;;;;;;10.48;2.80;;;;;;;;;;5032344;28;20021;-84
2021/11/08 15:18:37;;;;;;;19.10;2.72;;;;;;;;;;5031067;28;20056;-82
2021/11/08 15:21:04;;;;;;;18.08;2.58;;;;;;;;;;5010278;28;20100;-85
2021/11/08 15:23:40;;;;;;;13.38;3.20;;;;;;;;;;5032168;28;20083;-84
2021/11/08 15:26:10;;;;;;;12.85;3.42;;;;;;;;;;5026980;28;20049;-85
2021/11/08 15:28:38;;;;;;;17.02;2.88;;;;;;;;;;5065129;28;20468;-85
2021/11/08 15:31:05;;;;;;;16.60;2.95;;;;;;;;;;5031814;28;20031;-85
2021/11/08 15:33:43;;;;;;;16.60;3.03;;;;;;;;;;5032698;28;20097;-85
2021/11/08 15:36:17;;;;;;;19.90;3.22;;;;;;;;;;5025969;28;20495;-85
2021/11/08 15:38:42;;;;;;;15.55;2.58;;;;;;;;;;5061580;28;20385;-85
2021/11/08 15:41:09;;;;;;;14.75;3.92;;;;;;;;;;5036213;28;20024;-85
2021/11/08 15:43:35;;;;;;;22.40;3.63;;;;;;;;;;5030691;28;20021;-84
2021/11/08 15:46:01;;;;;;;25.02;4.25;;;;;;;;;;5031201;28;20079;-85
2021/11/08 15:48:30;;;;;;;17.77;3.85;;;;;;;;;;5030863;28;20014;-85
2021/11/08 15:50:58;;;;;;;13.63;3.67;;;;;;;;;;5030594;28;20116;-85
2021/11/08 15:53:23;;;;;;;27.83;3.95;;;;;;;;;;5031198;28;20025;-85
2021/11/08 15:55:48;;;;;;;12.98;3.45;;;;;;;;;;5064184;28;20059;-85
2021/11/08 15:58:14;;;;;;;16.67;3.70;;;;;;;;;;5031765;28;20034;-85
2021/11/08 16:00:41;;;;;;;17.45;3.25;;;;;;;;;;5030476;28;20038;-85
2021/11/08 16:03:06;;;;;;;19.05;3.75;;;;;;;;;;5064571;28;20075;-85
2021/11/08 16:05:32;;;;;;;16.63;3.28;;;;;;;;;;5030821;28;20025;-85
2021/11/08 16:07:58;;;;;;;18.98;4.30;;;;;;;;;;5030692;28;20120;-85
2021/11/08 16:10:23;;;;;;;23.38;4.18;;;;;;;;;;5030762;28;20033;-84
2021/11/08 16:12:48;;;;;;;20.08;5.10;;;;;;;;;;5030165;28;20468;-84
2021/11/08 16:15:13;;;;;;;29.00;6.22;;;;;;;;;;5031169;28;20022;-84
2021/11/08 16:17:38;;;;;;;24.55;6.07;;;;;;;;;;5032589;28;20025;-84
2021/11/08 16:20:05;;;;;;;22.90;6.13;;;;;;;;;;5064153;28;20487;-83
2021/11/08 16:22:30;;;;;;;30.80;7.82;;;;;;;;;;5030504;28;20358;-84